Time,TemperatureF,DewpointF,PressureIn,WindDirection,WindDirectionDegrees,WindSpeedMPH,WindSpeedGustMPH,Humidity,HourlyPrecipIn,Conditions,Clouds,dailyrainin,SoftwareType,DateUTC
2013-03-05 00:02:00,27.0,20.0,30.22,WNW,293,0.0,1.0,74,0.00,,,0.00,,2013-03-05 05:02:00,
2013-03-05 00:12:00,27.0,20.0,30.22,WNW,293,0.0,1.0,74,0.00,,,0.00,,2013-03-05 05:12:00,
2013-03-05 00:22:00,27.0,20.0,30.22,WNW,293,0.0,1.0,74,0.00,,,0.00,,2013-03-05 05:22:00,
2013-03-05 00:32:00,27.0,20.0,30.22,WNW,293,0.0,1.0,74,0.00,,,0.00,,2013-03-05 05:32:00,
2013-03-05 00:40:00,29.0,20.0,30.22,ENE,68,0.0,1.0,70,0.00,,,0.00,,2013-03-05 05:40:00,
2013-03-05 01:02:00,29.0,20.0,30.22,ENE,68,0.0,1.0,70,0.00,,,0.00,,2013-03-05 06:02:00,
2013-03-05 01:11:00,29.0,20.0,30.22,ENE,68,0.0,1.0,70,0.00,,,0.00,,2013-03-05 06:11:00,
2013-03-05 01:22:00,29.0,20.0,30.22,ENE,68,0.0,1.0,70,0.00,,,0.00,,2013-03-05 06:22:00,
2013-03-05 01:32:00,29.0,20.0,30.22,ENE,68,0.0,1.0,70,0.00,,,0.00,,2013-03-05 06:32:00,
2013-03-05 01:41:00,31.0,24.0,30.22,ENE,68,0.0,0.0,76,0.00,,,0.00,,2013-03-05 06:41:00,
2013-03-05 02:01:00,31.0,24.0,30.22,ENE,68,0.0,0.0,76,0.00,,,0.00,,2013-03-05 07:01:00,
2013-03-05 02:11:00,31.0,24.0,30.22,ENE,68,0.0,0.0,76,0.00,,,0.00,,2013-03-05 07:11:00,
2013-03-05 02:22:00,31.0,24.0,30.22,ENE,68,0.0,0.0,76,0.00,,,0.00,,2013-03-05 07:22:00,
2013-03-05 02:32:00,31.0,24.0,30.22,ENE,68,0.0,0.0,76,0.00,,,0.00,,2013-03-05 07:32:00,
2013-03-05 02:41:00,31.0,31.0,30.22,North,0,255.0,255.0,100,0.00,,,0.00,,2013-03-05 07:41:00,
2013-03-05 03:02:00,31.0,31.0,30.22,North,0,255.0,255.0,100,0.00,,,0.00,,2013-03-05 08:02:00,
2013-03-05 03:11:00,31.0,31.0,30.22,North,0,255.0,255.0,100,0.00,,,0.00,,2013-03-05 08:11:00,
2013-03-05 03:21:00,31.0,31.0,30.22,North,0,255.0,255.0,100,0.00,,,0.00,,2013-03-05 08:21:00,
2013-03-05 03:32:00,31.0,31.0,30.22,North,0,255.0,255.0,100,0.00,,,0.00,,2013-03-05 08:32:00,
2013-03-05 03:41:00,31.0,31.0,30.20,North,0,255.0,255.0,100,0.00,,,0.00,,2013-03-05 08:41:00,
2013-03-05 04:02:00,31.0,31.0,30.20,North,0,255.0,255.0,100,0.00,,,0.00,,2013-03-05 09:02:00,
2013-03-05 04:11:00,31.0,31.0,30.20,North,0,255.0,255.0,100,0.00,,,0.00,,2013-03-05 09:11:00,
2013-03-05 04:21:00,31.0,31.0,30.20,North,0,255.0,255.0,100,0.00,,,0.00,,2013-03-05 09:21:00,
2013-03-05 04:32:00,31.0,31.0,30.20,North,0,255.0,255.0,100,0.00,,,0.00,,2013-03-05 09:32:00,
2013-03-05 04:41:00,31.0,31.0,30.20,North,0,255.0,255.0,100,0.00,,,0.00,,2013-03-05 09:41:00,
2013-03-05 05:02:00,31.0,31.0,30.20,North,0,255.0,255.0,100,0.00,,,0.00,,2013-03-05 10:02:00,
2013-03-05 05:11:00,31.0,31.0,30.20,North,0,255.0,255.0,100,0.00,,,0.00,,2013-03-05 10:11:00,
2013-03-05 05:22:00,31.0,31.0,30.20,North,0,255.0,255.0,100,0.00,,,0.00,,2013-03-05 10:22:00,
2013-03-05 05:32:00,31.0,31.0,30.20,North,0,255.0,255.0,100,0.00,,,0.00,,2013-03-05 10:32:00,
2013-03-05 05:41:00,31.0,31.0,30.19,North,0,255.0,255.0,100,0.00,,,0.00,,2013-03-05 10:41:00,
2013-03-05 06:02:00,31.0,31.0,30.19,North,0,255.0,255.0,100,0.00,,,0.00,,2013-03-05 11:02:00,
2013-03-05 06:11:00,31.0,31.0,30.19,North,0,255.0,255.0,100,0.00,,,0.00,,2013-03-05 11:11:00,
2013-03-05 06:22:00,31.0,31.0,30.19,North,0,255.0,255.0,100,0.00,,,0.00,,2013-03-05 11:22:00,
2013-03-05 06:32:00,31.0,31.0,30.19,North,0,255.0,255.0,100,0.00,,,0.00,,2013-03-05 11:32:00,
2013-03-05 06:40:00,31.0,31.0,30.17,North,0,255.0,255.0,100,0.00,,,0.00,,2013-03-05 11:40:00,
2013-03-05 07:02:00,31.0,31.0,30.17,North,0,255.0,255.0,100,0.00,,,0.00,,2013-03-05 12:02:00,
2013-03-05 07:12:00,31.0,31.0,30.17,North,0,255.0,255.0,100,0.00,,,0.00,,2013-03-05 12:12:00,
2013-03-05 07:22:00,31.0,31.0,30.17,North,0,255.0,255.0,100,0.00,,,0.00,,2013-03-05 12:22:00,
2013-03-05 07:32:00,31.0,31.0,30.17,North,0,255.0,255.0,100,0.00,,,0.00,,2013-03-05 12:32:00,
2013-03-05 07:40:00,31.0,31.0,30.18,North,0,255.0,255.0,100,0.00,,,0.00,,2013-03-05 12:40:00,
2013-03-05 08:02:00,31.0,31.0,30.18,North,0,255.0,255.0,100,0.00,,,0.00,,2013-03-05 13:02:00,
2013-03-05 08:12:00,31.0,31.0,30.18,North,0,255.0,255.0,100,0.00,,,0.00,,2013-03-05 13:12:00,
2013-03-05 08:22:00,31.0,31.0,30.18,North,0,255.0,255.0,100,0.00,,,0.00,,2013-03-05 13:22:00,
2013-03-05 08:32:00,31.0,31.0,30.18,North,0,255.0,255.0,100,0.00,,,0.00,,2013-03-05 13:32:00,
2013-03-05 08:40:00,35.0,26.0,30.18,ENE,68,0.0,0.0,69,0.00,,,0.00,,2013-03-05 13:40:00,
2013-03-05 09:02:00,35.0,26.0,30.18,ENE,68,0.0,0.0,69,0.00,,,0.00,,2013-03-05 14:02:00,
2013-03-05 09:11:00,35.0,26.0,30.18,ENE,68,0.0,0.0,69,0.00,,,0.00,,2013-03-05 14:11:00,
2013-03-05 09:22:00,35.0,26.0,30.18,ENE,68,0.0,0.0,69,0.00,,,0.00,,2013-03-05 14:22:00,
2013-03-05 09:32:00,35.0,26.0,30.18,ENE,68,0.0,0.0,69,0.00,,,0.00,,2013-03-05 14:32:00,
2013-03-05 09:40:00,40.0,22.0,30.16,SSE,158,1.0,3.0,49,0.00,,,0.00,,2013-03-05 14:40:00,
2013-03-05 10:02:00,40.0,22.0,30.16,SSE,158,1.0,3.0,49,0.00,,,0.00,,2013-03-05 15:02:00,
2013-03-05 10:11:00,40.0,22.0,30.16,SSE,158,1.0,3.0,49,0.00,,,0.00,,2013-03-05 15:11:00,
2013-03-05 10:22:00,40.0,22.0,30.16,SSE,158,1.0,3.0,49,0.00,,,0.00,,2013-03-05 15:22:00,
2013-03-05 10:32:00,40.0,22.0,30.16,SSE,158,1.0,3.0,49,0.00,,,0.00,,2013-03-05 15:32:00,
2013-03-05 10:40:00,41.0,22.0,30.13,ESE,113,0.0,3.0,46,0.00,,,0.00,,2013-03-05 15:40:00,
2013-03-05 11:02:00,41.0,22.0,30.13,ESE,113,0.0,3.0,46,0.00,,,0.00,,2013-03-05 16:02:00,
2013-03-05 11:11:00,41.0,22.0,30.13,ESE,113,0.0,3.0,46,0.00,,,0.00,,2013-03-05 16:11:00,
2013-03-05 11:22:00,41.0,22.0,30.13,ESE,113,0.0,3.0,46,0.00,,,0.00,,2013-03-05 16:22:00,
2013-03-05 11:32:00,41.0,22.0,30.13,ESE,113,0.0,3.0,46,0.00,,,0.00,,2013-03-05 16:32:00,
2013-03-05 11:40:00,41.0,23.0,30.11,ESE,113,1.0,3.0,49,0.00,,,0.00,,2013-03-05 16:40:00,
2013-03-05 12:01:00,41.0,23.0,30.11,ESE,113,1.0,3.0,49,0.00,,,0.00,,2013-03-05 17:01:00,
2013-03-05 12:11:00,41.0,23.0,30.11,ESE,113,1.0,3.0,49,0.00,,,0.00,,2013-03-05 17:11:00,
2013-03-05 12:22:00,41.0,23.0,30.11,ESE,113,1.0,3.0,49,0.00,,,0.00,,2013-03-05 17:22:00,
2013-03-05 12:32:00,41.0,23.0,30.11,ESE,113,1.0,3.0,49,0.00,,,0.00,,2013-03-05 17:32:00,
2013-03-05 12:40:00,42.0,25.0,30.08,East,90,2.0,5.0,50,0.00,,,0.00,,2013-03-05 17:40:00,
2013-03-05 13:02:00,42.0,25.0,30.08,East,90,2.0,5.0,50,0.00,,,0.00,,2013-03-05 18:02:00,
2013-03-05 13:11:00,42.0,25.0,30.08,East,90,2.0,5.0,50,0.00,,,0.00,,2013-03-05 18:11:00,
2013-03-05 13:22:00,42.0,25.0,30.08,East,90,2.0,5.0,50,0.00,,,0.00,,2013-03-05 18:22:00,
2013-03-05 13:32:00,42.0,25.0,30.08,East,90,2.0,5.0,50,0.00,,,0.00,,2013-03-05 18:32:00,
2013-03-05 13:40:00,46.0,27.0,30.02,SSE,158,3.0,7.0,47,0.00,,,0.00,,2013-03-05 18:40:00,
2013-03-05 14:02:00,46.0,27.0,30.02,SSE,158,3.0,7.0,47,0.00,,,0.00,,2013-03-05 19:02:00,
2013-03-05 14:11:00,46.0,27.0,30.02,SSE,158,3.0,7.0,47,0.00,,,0.00,,2013-03-05 19:11:00,
2013-03-05 14:22:00,46.0,27.0,30.02,SSE,158,3.0,7.0,47,0.00,,,0.00,,2013-03-05 19:22:00,
2013-03-05 14:32:00,46.0,27.0,30.02,SSE,158,3.0,7.0,47,0.00,,,0.00,,2013-03-05 19:32:00,
2013-03-05 14:40:00,44.0,27.0,30.01,SE,135,1.0,3.0,50,0.00,,,0.00,,2013-03-05 19:40:00,
2013-03-05 15:01:00,44.0,27.0,30.01,SE,135,1.0,3.0,50,0.00,,,0.00,,2013-03-05 20:01:00,
2013-03-05 15:11:00,44.0,27.0,30.01,SE,135,1.0,3.0,50,0.00,,,0.00,,2013-03-05 20:11:00,
2013-03-05 15:22:00,44.0,27.0,30.01,SE,135,1.0,3.0,50,0.00,,,0.00,,2013-03-05 20:22:00,
2013-03-05 15:32:00,44.0,27.0,30.01,SE,135,1.0,3.0,50,0.00,,,0.00,,2013-03-05 20:32:00,
2013-03-05 15:40:00,42.0,28.0,30.00,SE,135,0.0,3.0,58,0.00,,,0.00,,2013-03-05 20:40:00,
2013-03-05 16:02:00,42.0,28.0,30.00,SE,135,0.0,3.0,58,0.00,,,0.00,,2013-03-05 21:02:00,
2013-03-05 16:11:00,42.0,28.0,30.00,SE,135,0.0,3.0,58,0.00,,,0.00,,2013-03-05 21:11:00,
2013-03-05 16:22:00,42.0,28.0,30.00,SE,135,0.0,3.0,58,0.00,,,0.00,,2013-03-05 21:22:00,
2013-03-05 16:32:00,42.0,28.0,30.00,SE,135,0.0,3.0,58,0.00,,,0.00,,2013-03-05 21:32:00,
2013-03-05 16:40:00,36.0,33.0,29.97,SE,135,1.0,3.0,88,0.05,,,0.05,,2013-03-05 21:40:00,
2013-03-05 17:01:00,36.0,33.0,29.97,SE,135,1.0,3.0,88,0.05,,,0.05,,2013-03-05 22:01:00,
2013-03-05 17:12:00,36.0,33.0,29.97,SE,135,1.0,3.0,88,0.05,,,0.05,,2013-03-05 22:12:00,
2013-03-05 17:22:00,36.0,33.0,29.97,SE,135,1.0,3.0,88,0.05,,,0.05,,2013-03-05 22:22:00,
2013-03-05 17:32:00,36.0,33.0,29.97,SE,135,1.0,3.0,88,0.05,,,0.05,,2013-03-05 22:32:00,
2013-03-05 17:40:00,34.0,32.0,29.93,SSE,158,0.0,6.0,91,0.04,,,0.09,,2013-03-05 22:40:00,
2013-03-05 18:01:00,34.0,32.0,29.93,SSE,158,0.0,6.0,91,0.04,,,0.09,,2013-03-05 23:01:00,
2013-03-05 18:11:00,34.0,32.0,29.93,SSE,158,0.0,6.0,91,0.04,,,0.09,,2013-03-05 23:11:00,
2013-03-05 18:22:00,34.0,32.0,29.93,SSE,158,0.0,6.0,91,0.04,,,0.09,,2013-03-05 23:22:00,
2013-03-05 18:32:00,34.0,32.0,29.93,SSE,158,0.0,6.0,91,0.04,,,0.09,,2013-03-05 23:32:00,
2013-03-05 18:40:00,33.0,31.0,29.89,SE,135,3.0,9.0,94,0.01,,,0.09,,2013-03-05 23:40:00,
2013-03-05 19:02:00,33.0,31.0,29.89,SE,135,3.0,9.0,94,0.01,,,0.09,,2013-03-06 00:02:00,
2013-03-05 19:11:00,33.0,31.0,29.89,SE,135,3.0,9.0,94,0.01,,,0.09,,2013-03-06 00:11:00,
2013-03-05 19:22:00,33.0,31.0,29.89,SE,135,3.0,9.0,94,0.01,,,0.09,,2013-03-06 00:22:00,
2013-03-05 19:32:00,33.0,31.0,29.89,SE,135,3.0,9.0,94,0.01,,,0.09,,2013-03-06 00:32:00,
2013-03-05 19:40:00,33.0,32.0,29.85,South,180,1.0,6.0,95,0.08,,,0.17,,2013-03-06 00:40:00,
2013-03-05 20:02:00,33.0,32.0,29.85,South,180,1.0,6.0,95,0.08,,,0.17,,2013-03-06 01:02:00,
2013-03-05 20:11:00,33.0,32.0,29.85,South,180,1.0,6.0,95,0.08,,,0.17,,2013-03-06 01:11:00,
2013-03-05 20:22:00,33.0,32.0,29.85,South,180,1.0,6.0,95,0.08,,,0.17,,2013-03-06 01:22:00,
2013-03-05 20:32:00,33.0,32.0,29.85,South,180,1.0,6.0,95,0.08,,,0.17,,2013-03-06 01:32:00,
2013-03-05 20:40:00,33.0,32.0,29.85,East,90,0.0,3.0,95,0.18,,,0.34,,2013-03-06 01:40:00,
2013-03-05 21:01:00,33.0,32.0,29.85,East,90,0.0,3.0,95,0.18,,,0.34,,2013-03-06 02:01:00,
2013-03-05 21:11:00,33.0,32.0,29.85,East,90,0.0,3.0,95,0.18,,,0.34,,2013-03-06 02:11:00,
2013-03-05 21:22:00,33.0,32.0,29.85,East,90,0.0,3.0,95,0.18,,,0.34,,2013-03-06 02:22:00,
2013-03-05 21:32:00,33.0,32.0,29.85,East,90,0.0,3.0,95,0.18,,,0.34,,2013-03-06 02:32:00,
2013-03-05 21:41:00,33.0,32.0,29.80,SSW,203,0.0,3.0,96,0.19,,,0.55,,2013-03-06 02:41:00,
2013-03-05 22:02:00,33.0,32.0,29.80,SSW,203,0.0,3.0,96,0.19,,,0.55,,2013-03-06 03:02:00,
2013-03-05 22:11:00,33.0,32.0,29.80,SSW,203,0.0,3.0,96,0.19,,,0.55,,2013-03-06 03:11:00,
2013-03-05 22:22:00,33.0,32.0,29.80,SSW,203,0.0,3.0,96,0.19,,,0.55,,2013-03-06 03:22:00,
2013-03-05 22:32:00,33.0,32.0,29.80,SSW,203,0.0,3.0,96,0.19,,,0.55,,2013-03-06 03:32:00,
2013-03-05 22:41:00,33.0,32.0,29.75,SSE,158,0.0,6.0,96,0.11,,,0.66,,2013-03-06 03:41:00,
2013-03-05 23:02:00,33.0,32.0,29.75,SSE,158,0.0,6.0,96,0.11,,,0.66,,2013-03-06 04:02:00,
2013-03-05 23:11:00,33.0,32.0,29.75,SSE,158,0.0,6.0,96,0.11,,,0.66,,2013-03-06 04:11:00,
2013-03-05 23:22:00,33.0,32.0,29.75,SSE,158,0.0,6.0,96,0.11,,,0.66,,2013-03-06 04:22:00,
2013-03-05 23:32:00,33.0,32.0,29.75,SSE,158,0.0,6.0,96,0.11,,,0.66,,2013-03-06 04:32:00,
2013-03-05 23:41:00,32.0,31.0,29.73,South,180,0.0,5.0,96,0.03,,,0.69,,2013-03-06 04:41:00,